Aérodrome :
LOGIN :

S'inscrire | Disclaimer

   EN    FR    IT 

 










Légende :    VFR   VFR Marginal   IFR   IFR Intensif   IFR Très Intensif
Visi : 
Plafond : 
>= 8 km
>= 3000ft
5 à 8 km
1000 à 3000 ft
1500m à 5 km
500 à 1000 ft
800 à 1500m
200 à 500 ft
< 800m
< 200 ft
Symboles :   Orages  Brouillard  Fortes neiges  Fortes précipitations  Vent > 20 kt
SIGMETs :   Divers  Orages  Givrage  Turbulence  Onde Orograph.  Cendres Volcan.







- Altitude de l'aérodrome : 39 ft
- Code IATA : ANR


EBAW - Anvers / Antwerpen Deurne

DERNIER METAR :
  • 192320Z AUTO 16005KT CAVOK 16/12 Q1006

METARs EXPIRÉS :
  • 192250Z AUTO 15007KT CAVOK 18/12 Q1006
  • 192220Z AUTO 15006KT CAVOK 18/13 Q1006
  • 192150Z AUTO 14007KT CAVOK 18/13 Q1006
  • 192120Z AUTO 16005KT 9999 -SHRA FEW009/// 19/13 Q1007
  • 192050Z 17007KT 140V200 CAVOK 19/13 Q1007 NOSIG

TAF TAF EBAW
Valide du 20 à 00h jusqu'au 20 à 09h UTC


192310Z 2000/2009 18009KT CAVOK
TEMPO 2003/2005 4000 SHRA RA BKN014
Pas de NOTAMs connus pour ce terrain.
3 SIGMETs publiés pour la FIR Brussels (EBBU) :
 
Turbulence forte
EBBU SIGMET 01 VALID 200300/200700 EBBR
EBBU BRUSSELS FIR SEV TURB FCST S OF LINE N5101 E00231 - N4958 E00438 FL190/350 MOV NE 25KT NC=
Turbulence forte
COR EBBU SIGMET 01 VALID 200300/200700 EBBR
EBBU BRUSSELS FIR SEV TURB FCST S OF LINE N5103 E00238 - N5002 E00444 FL190/350 MOV NE 25KT NC=
Turbulence forte
COR EBBU SIGMET 01 VALID 200300/200700 EBBR
EBBU BRUSSELS FIR SEV TURB FCST S OF LINE N5047 E00305 - N5002 E00444 FL190/350 MOV NE 25KT NC=



MET'MAP, la Météo Aéronautique d'un coup d'oeil ! - Copyright ORBIFLY Décembre 2007 - Disclaimer

ORBIFLY MET'MAP TEAM :

Programmation & Développement : Alexandra Zaïnal
Conception & Développement : Baudouin d'Aumeries
Co-Programmation & Développement : Marc-Olivier Méhu
Soutien technique & logistique : Manuel Goepfert

Contact : metmap@orbifly.com




SOURCES & CREDITS :

   NOAA